createdAt,value
2023-03-20T00:02:00.593Z,101547.97
2023-03-20T00:04:04.073Z,101547.72
2023-03-20T00:06:15.739Z,101542.66
2023-03-20T00:08:17.647Z,101541.53
2023-03-20T00:10:20.648Z,101550.28
2023-03-20T00:12:25.671Z,101552.56
2023-03-20T00:14:28.652Z,101547.50
2023-03-20T00:16:33.343Z,101544.53
2023-03-20T00:18:36.172Z,101543.84
2023-03-20T00:20:39.469Z,101539.66
2023-03-20T00:22:41.184Z,101539.19
2023-03-20T00:24:42.900Z,101533.28
2023-03-20T00:26:46.396Z,101538.06
2023-03-20T00:28:49.959Z,101533.00
2023-03-20T00:30:52.559Z,101544.28
2023-03-20T00:32:57.609Z,101537.38
2023-03-20T00:34:59.291Z,101531.25
2023-03-20T00:37:03.596Z,101541.50
2023-03-20T00:39:05.370Z,101541.88
2023-03-20T00:41:21.505Z,101547.34
2023-03-20T00:43:23.046Z,101546.84
2023-03-20T00:45:25.316Z,101540.13
2023-03-20T00:47:28.130Z,101543.88
2023-03-20T00:49:33.144Z,101537.75
2023-03-20T00:51:34.797Z,101545.28
2023-03-20T00:53:38.086Z,101541.88
2023-03-20T00:55:40.390Z,101535.63
2023-03-20T00:57:45.862Z,101535.81
2023-03-20T00:59:53.571Z,101533.47
2023-03-20T01:01:55.872Z,101540.78
2023-03-20T01:03:59.420Z,101542.03
2023-03-20T01:06:01.436Z,101539.47
2023-03-20T01:08:05.526Z,101542.59
2023-03-20T01:10:11.027Z,101542.75
2023-03-20T01:12:15.373Z,101544.00
2023-03-20T01:14:19.498Z,101544.16
2023-03-20T01:16:23.216Z,101540.63
2023-03-20T01:18:26.818Z,101533.88
2023-03-20T01:20:30.577Z,101534.91
2023-03-20T01:22:32.452Z,101534.22
2023-03-20T01:24:34.103Z,101533.59
2023-03-20T01:26:40.265Z,101531.88
2023-03-20T01:28:42.070Z,101533.75
2023-03-20T01:30:45.423Z,101537.72
2023-03-20T01:32:47.527Z,101532.47
2023-03-20T01:34:49.652Z,101536.41
2023-03-20T01:36:54.973Z,101527.38
2023-03-20T01:38:59.231Z,101537.63
2023-03-20T01:41:08.039Z,101545.97
2023-03-20T01:43:16.504Z,101545.13
2023-03-20T01:45:21.387Z,101542.59
2023-03-20T01:47:25.404Z,101553.88
2023-03-20T01:50:04.694Z,101538.41
2023-03-20T01:52:07.275Z,101542.50
2023-03-20T01:54:12.915Z,101543.72
2023-03-20T01:56:16.131Z,101548.31
2023-03-20T01:58:24.545Z,101541.34
2023-03-20T02:00:26.251Z,101543.41
2023-03-20T02:02:31.492Z,101540.88
2023-03-20T02:04:36.806Z,101541.88
2023-03-20T02:06:42.224Z,101543.13
2023-03-20T02:08:48.744Z,101541.41
2023-03-20T02:10:50.612Z,101547.91
2023-03-20T02:12:53.495Z,101547.25
2023-03-20T02:14:58.182Z,101552.88
2023-03-20T02:16:59.964Z,101548.63
2023-03-20T02:19:02.328Z,101544.22
2023-03-20T02:21:46.177Z,101545.06
2023-03-20T02:24:30.673Z,101551.56
2023-03-20T02:26:47.064Z,101552.97
2023-03-20T02:29:28.342Z,101557.72
2023-03-20T02:32:20.944Z,101552.28
2023-03-20T02:34:49.724Z,101558.09
2023-03-20T02:37:25.512Z,101556.59
2023-03-20T02:39:43.923Z,101556.78
2023-03-20T02:41:54.397Z,101561.56
2023-03-20T02:44:06.021Z,101564.28
2023-03-20T02:46:14.167Z,101557.31
2023-03-20T02:48:27.575Z,101559.22
2023-03-20T02:50:39.017Z,101560.25
2023-03-20T02:52:48.764Z,101560.25
2023-03-20T02:54:59.250Z,101565.66
2023-03-20T02:57:06.718Z,101563.13
2023-03-20T02:59:20.172Z,101567.53
2023-03-20T03:01:28.171Z,101566.69
2023-03-20T03:03:37.215Z,101571.09
2023-03-20T03:05:43.972Z,101569.41
2023-03-20T03:07:51.159Z,101571.09
2023-03-20T03:09:57.204Z,101568.38
2023-03-20T03:12:03.982Z,101570.25
2023-03-20T03:14:07.598Z,101569.25
2023-03-20T03:16:14.288Z,101570.09
2023-03-20T03:18:21.170Z,101566.31
2023-03-20T03:20:29.698Z,101571.75
2023-03-20T03:22:32.690Z,101572.59
2023-03-20T03:24:41.643Z,101567.16
2023-03-20T03:26:43.944Z,101578.03
2023-03-20T03:28:49.756Z,101571.75
2023-03-20T03:30:52.633Z,101577.19
2023-03-20T03:33:12.636Z,101587.88
2023-03-20T03:35:19.354Z,101586.56
2023-03-20T03:37:29.588Z,101590.31
2023-03-20T03:39:41.859Z,101588.81
2023-03-20T03:41:48.619Z,101590.19
2023-03-20T03:43:58.528Z,101593.09
2023-03-20T03:46:06.750Z,101589.06
2023-03-20T03:48:14.072Z,101596.53
2023-03-20T03:50:19.365Z,101595.22
2023-03-20T03:52:24.720Z,101594.56
2023-03-20T03:54:32.301Z,101592.22
2023-03-20T03:56:39.114Z,101592.22
2023-03-20T03:58:44.206Z,101583.56
2023-03-20T04:00:48.735Z,101587.13
2023-03-20T04:02:54.065Z,101584.41
2023-03-20T04:04:56.843Z,101585.44
2023-03-20T04:06:59.060Z,101591.91
2023-03-20T04:09:01.004Z,101581.88
2023-03-20T04:11:02.773Z,101590.03
2023-03-20T04:13:05.736Z,101582.91
2023-03-20T04:15:08.249Z,101580.19
2023-03-20T04:17:10.103Z,101587.31
2023-03-20T04:19:12.199Z,101593.59
2023-03-20T04:21:14.557Z,101582.72
2023-03-20T04:23:16.375Z,101588.16
2023-03-20T04:25:21.370Z,101584.59
2023-03-20T04:27:22.993Z,101589.84
2023-03-20T04:29:26.587Z,101588.97
2023-03-20T04:31:28.572Z,101589.66
2023-03-20T04:33:30.244Z,101595.09
2023-03-20T04:35:32.026Z,101594.09
2023-03-20T04:37:33.736Z,101593.22
2023-03-20T04:39:35.584Z,101594.09
2023-03-20T04:41:37.209Z,101591.38
2023-03-20T04:43:39.396Z,101587.81
2023-03-20T04:45:43.647Z,101586.78
2023-03-20T04:47:45.257Z,101587.59
2023-03-20T04:49:46.873Z,101583.00
2023-03-20T04:51:48.680Z,101586.78
2023-03-20T04:53:50.686Z,101583.00
2023-03-20T04:55:52.628Z,101582.16
2023-03-20T04:57:54.535Z,101573.00
2023-03-20T04:59:56.581Z,101575.72
2023-03-20T05:01:59.764Z,101582.00
2023-03-20T05:04:03.831Z,101577.41
2023-03-20T05:06:06.039Z,101582.00
2023-03-20T05:08:07.902Z,101580.13
2023-03-20T05:10:10.964Z,101577.41
2023-03-20T05:12:12.635Z,101582.84
2023-03-20T05:14:14.276Z,101584.53
2023-03-20T05:16:16.006Z,101585.38
2023-03-20T05:18:19.341Z,101586.41
2023-03-20T05:20:20.981Z,101590.16
2023-03-20T05:22:22.638Z,101589.28
2023-03-20T05:24:24.275Z,101593.03
2023-03-20T05:26:26.131Z,101594.94
2023-03-20T05:28:30.076Z,101597.81
2023-03-20T05:30:32.331Z,101599.69
2023-03-20T05:32:35.453Z,101597.97
2023-03-20T05:34:38.980Z,101599.03
2023-03-20T05:36:40.875Z,101598.34
2023-03-20T05:38:45.008Z,101601.28
2023-03-20T05:40:47.013Z,101603.31
2023-03-20T05:42:48.707Z,101602.44
2023-03-20T05:44:50.232Z,101606.22
2023-03-20T05:46:53.956Z,101602.66
2023-03-20T05:48:55.763Z,101608.09
2023-03-20T05:50:58.961Z,101610.81
2023-03-20T05:53:00.982Z,101604.69
2023-03-20T05:55:03.041Z,101606.38
2023-03-20T05:57:04.704Z,101595.53
2023-03-20T05:59:06.282Z,101600.97
2023-03-20T06:01:07.914Z,101602.81
2023-03-20T06:03:10.216Z,101602.81
2023-03-20T06:05:12.046Z,101602.81
2023-03-20T06:07:15.541Z,101601.13
2023-03-20T06:09:17.192Z,101603.66
2023-03-20T06:11:18.780Z,101604.53
2023-03-20T06:13:20.416Z,101610.81
2023-03-20T06:15:22.275Z,101610.59
2023-03-20T06:19:26.075Z,101604.16
2023-03-20T06:21:28.166Z,101609.59
2023-03-20T06:23:31.209Z,101607.72
2023-03-20T06:25:34.973Z,101612.13
2023-03-20T06:27:39.461Z,101615.50
2023-03-20T06:29:42.540Z,101614.47
2023-03-20T06:31:44.546Z,101616.16
2023-03-20T06:33:46.182Z,101610.72
2023-03-20T06:35:48.045Z,101609.91
2023-03-20T06:37:49.676Z,101613.44
2023-03-20T06:39:52.817Z,101618.06
2023-03-20T06:41:54.724Z,101615.34
2023-03-20T06:43:58.675Z,101613.44
2023-03-20T06:46:00.326Z,101614.28
2023-03-20T06:48:02.200Z,101610.72
2023-03-20T06:50:07.107Z,101615.13
2023-03-20T06:52:15.170Z,101607.84
2023-03-20T06:54:17.438Z,101620.56
2023-03-20T06:56:20.765Z,101614.28
2023-03-20T06:58:22.988Z,101621.41
2023-03-20T07:00:27.311Z,101623.28
2023-03-20T07:02:28.925Z,101623.13
2023-03-20T07:04:31.908Z,101618.69
2023-03-20T07:06:33.652Z,101619.53
2023-03-20T07:08:35.513Z,101624.97
2023-03-20T07:10:37.669Z,101622.25
2023-03-20T07:12:40.734Z,101634.84
2023-03-20T07:14:44.334Z,101632.13
2023-03-20T07:16:46.305Z,101636.50
2023-03-20T07:18:47.966Z,101634.63
2023-03-20T07:20:51.808Z,101636.34
2023-03-20T07:22:53.508Z,101633.63
2023-03-20T07:24:55.154Z,101630.03
2023-03-20T07:26:56.752Z,101631.75
2023-03-20T07:28:59.992Z,101634.25
2023-03-20T07:31:01.881Z,101638.69
2023-03-20T07:33:03.957Z,101648.53
2023-03-20T07:35:06.811Z,101643.09
2023-03-20T07:37:09.328Z,101642.09
2023-03-20T07:39:14.984Z,101649.38
2023-03-20T07:41:16.607Z,101648.53
2023-03-20T07:43:28.619Z,101645.81
2023-03-20T07:45:32.076Z,101654.97
2023-03-20T07:47:33.978Z,101656.00
2023-03-20T07:49:36.053Z,101655.19
2023-03-20T07:51:37.667Z,101656.00
2023-03-20T07:53:39.381Z,101645.97
2023-03-20T07:55:41.220Z,101647.84
2023-03-20T07:57:42.979Z,101643.25
2023-03-20T07:59:46.773Z,101651.25
2023-03-20T08:01:49.753Z,101649.38
2023-03-20T08:03:51.475Z,101647.50
2023-03-20T08:05:54.410Z,101651.72
2023-03-20T08:07:56.440Z,101653.44
2023-03-20T08:09:58.634Z,101648.84
2023-03-20T08:12:00.422Z,101640.50
2023-03-20T08:14:09.417Z,101644.91
2023-03-20T08:16:12.217Z,101643.91
2023-03-20T08:18:15.619Z,101648.28
2023-03-20T08:20:17.578Z,101661.69
2023-03-20T08:22:19.389Z,101658.13
2023-03-20T08:24:21.495Z,101657.97
2023-03-20T08:26:24.766Z,101649.97
2023-03-20T08:28:45.897Z,101644.38
2023-03-20T08:30:49.294Z,101645.03
2023-03-20T08:32:51.197Z,101651.47
2023-03-20T08:34:54.395Z,101648.38
2023-03-20T08:36:56.025Z,101653.66
2023-03-20T08:38:59.354Z,101654.34
2023-03-20T08:41:01.203Z,101657.06
2023-03-20T08:43:03.024Z,101655.84
2023-03-20T08:45:05.716Z,101651.06
2023-03-20T08:47:07.366Z,101652.56
2023-03-20T08:49:09.003Z,101652.38
2023-03-20T08:51:12.084Z,101648.47
2023-03-20T08:53:13.940Z,101647.41
2023-03-20T08:55:16.233Z,101651.66
2023-03-20T08:57:17.780Z,101655.88
2023-03-20T08:59:19.407Z,101650.25
2023-03-20T09:01:21.569Z,101658.06
2023-03-20T09:03:23.141Z,101652.25
2023-03-20T09:05:24.988Z,101651.22
2023-03-20T09:07:28.285Z,101660.88
2023-03-20T09:09:30.632Z,101660.50
2023-03-20T09:11:33.143Z,101657.41
2023-03-20T09:13:35.178Z,101658.13
2023-03-20T09:15:37.117Z,101657.94
2023-03-20T09:17:39.017Z,101660.28
2023-03-20T09:19:41.116Z,101660.94
2023-03-20T09:21:43.322Z,101668.75
2023-03-20T09:23:46.721Z,101657.47
2023-03-20T09:25:48.765Z,101663.59
2023-03-20T09:27:51.783Z,101667.16
2023-03-20T09:29:53.403Z,101667.81
2023-03-20T09:31:55.203Z,101666.97
2023-03-20T09:33:57.267Z,101661.53
2023-03-20T09:35:59.150Z,101672.41
2023-03-20T09:38:00.949Z,101666.97
2023-03-20T09:40:05.155Z,101674.28
2023-03-20T09:42:18.885Z,101680.41
2023-03-20T09:44:40.336Z,101681.41
2023-03-20T09:46:55.574Z,101679.72
2023-03-20T09:49:10.138Z,101679.91
2023-03-20T09:51:21.357Z,101680.09
2023-03-20T09:53:33.583Z,101683.84
2023-03-20T09:55:42.317Z,101679.25
2023-03-20T09:57:47.732Z,101682.16
2023-03-20T09:59:51.866Z,101673.16
2023-03-20T10:01:59.420Z,101679.44
2023-03-20T10:04:10.851Z,101674.84
2023-03-20T10:06:14.408Z,101681.31
2023-03-20T10:08:19.438Z,101680.28
2023-03-20T10:10:31.555Z,101680.09
2023-03-20T10:12:48.646Z,101688.25
2023-03-20T10:15:00.579Z,101676.53
2023-03-20T10:17:16.133Z,101681.13
2023-03-20T10:19:24.060Z,101680.28
2023-03-20T10:21:36.987Z,101679.44
2023-03-20T10:23:43.543Z,101669.75
2023-03-20T10:25:51.061Z,101671.84
2023-03-20T10:28:01.471Z,101673.69
2023-03-20T10:30:23.883Z,101669.97
2023-03-20T10:32:33.583Z,101678.50
2023-03-20T10:34:53.558Z,101667.41
2023-03-20T10:37:04.714Z,101671.34
2023-03-20T10:39:13.343Z,101665.91
2023-03-20T10:41:19.254Z,101670.50
2023-03-20T10:43:30.735Z,101663.19
2023-03-20T10:45:41.085Z,101667.78
2023-03-20T10:47:47.613Z,101667.97
2023-03-20T10:49:54.722Z,101663.56
2023-03-20T10:52:00.324Z,101666.28
2023-03-20T10:54:06.216Z,101670.03
2023-03-20T10:56:15.781Z,101668.28
2023-03-20T10:58:22.112Z,101665.78
2023-03-20T11:00:26.806Z,101663.06
2023-03-20T11:02:30.646Z,101655.94
2023-03-20T11:04:33.654Z,101658.63
2023-03-20T11:06:43.489Z,101653.03
2023-03-20T11:08:49.428Z,101657.78
2023-03-20T11:11:03.056Z,101661.19
2023-03-20T11:13:15.458Z,101655.06
2023-03-20T11:15:24.237Z,101668.03
2023-03-20T11:17:29.020Z,101659.88
2023-03-20T11:19:34.130Z,101645.78
2023-03-20T11:21:46.560Z,101649.16
2023-03-20T11:23:52.542Z,101649.63
2023-03-20T11:25:58.628Z,101645.56
2023-03-20T11:28:25.159Z,101652.50
2023-03-20T11:30:27.078Z,101648.91
2023-03-20T11:32:32.390Z,101635.16
2023-03-20T11:34:40.508Z,101638.72
2023-03-20T11:36:53.047Z,101641.06
2023-03-20T11:39:07.091Z,101631.88
2023-03-20T11:41:18.910Z,101632.53
2023-03-20T11:43:23.144Z,101625.03
2023-03-20T11:45:25.487Z,101621.94
2023-03-20T11:47:29.335Z,101615.09
2023-03-20T11:49:34.016Z,101620.63
2023-03-20T11:51:36.647Z,101614.66
2023-03-20T11:53:40.478Z,101616.81
2023-03-20T11:55:45.684Z,101615.38
2023-03-20T11:57:49.296Z,101611.47
2023-03-20T11:59:52.521Z,101611.06
2023-03-20T12:01:57.130Z,101622.44
2023-03-20T12:04:04.224Z,101616.81
2023-03-20T12:06:16.091Z,101606.56
2023-03-20T12:08:29.220Z,101624.38
2023-03-20T12:10:35.784Z,101624.38
2023-03-20T12:12:43.167Z,101618.09
2023-03-20T12:14:55.576Z,101615.38
2023-03-20T12:17:10.395Z,101624.38
2023-03-20T12:19:18.097Z,101624.22
2023-03-20T12:21:27.224Z,101618.94
2023-03-20T12:23:35.008Z,101615.38
2023-03-20T12:25:43.590Z,101611.63
2023-03-20T12:27:50.283Z,101617.06
2023-03-20T12:29:59.309Z,101618.09
2023-03-20T12:32:05.027Z,101613.72
2023-03-20T12:34:12.860Z,101622.91
2023-03-20T12:36:16.984Z,101621.03
2023-03-20T12:38:26.885Z,101616.44
2023-03-20T12:40:41.123Z,101611.84
2023-03-20T12:42:54.326Z,101622.50
2023-03-20T12:45:03.779Z,101614.34
2023-03-20T12:47:29.221Z,101608.72
2023-03-20T12:49:42.650Z,101611.63
2023-03-20T12:51:55.109Z,101610.59
2023-03-20T12:54:13.752Z,101611.63
2023-03-20T12:56:30.163Z,101605.53
2023-03-20T12:58:41.121Z,101614.56
2023-03-20T13:00:47.474Z,101610.13
2023-03-20T13:03:02.477Z,101610.13
2023-03-20T13:05:20.451Z,101612.00
2023-03-20T13:07:31.810Z,101605.06
2023-03-20T13:09:51.431Z,101607.59
2023-03-20T13:12:02.190Z,101607.81
2023-03-20T13:14:12.218Z,101600.47
2023-03-20T13:16:20.967Z,101607.81
2023-03-20T13:18:36.475Z,101603.00
2023-03-20T13:20:48.297Z,101600.47
2023-03-20T13:23:05.434Z,101602.16
2023-03-20T13:25:22.783Z,101596.72
2023-03-20T13:27:37.348Z,101595.03
2023-03-20T13:29:47.370Z,101592.50
2023-03-20T13:32:03.781Z,101595.03
2023-03-20T13:34:21.632Z,101597.75
2023-03-20T13:36:39.102Z,101593.97
2023-03-20T13:38:47.412Z,101586.03
2023-03-20T13:40:58.565Z,101583.09
2023-03-20T13:43:08.604Z,101579.53
2023-03-20T13:45:24.521Z,101578.50
2023-03-20T13:47:28.323Z,101581.22
2023-03-20T13:49:38.157Z,101573.72
2023-03-20T13:51:44.981Z,101577.28
2023-03-20T13:53:57.909Z,101576.91
2023-03-20T13:56:13.215Z,101566.88
2023-03-20T13:58:28.653Z,101575.69
2023-03-20T14:00:39.203Z,101569.22
2023-03-20T14:03:05.558Z,101572.41
2023-03-20T14:05:14.477Z,101572.19
2023-03-20T14:07:31.663Z,101567.41
2023-03-20T14:09:35.219Z,101571.00
2023-03-20T14:11:38.549Z,101578.94
2023-03-20T14:13:45.943Z,101573.31
2023-03-20T14:15:54.313Z,101575.03
2023-03-20T14:17:56.310Z,101571.25
2023-03-20T14:20:12.639Z,101572.09
2023-03-20T14:22:18.039Z,101572.09
2023-03-20T14:24:20.996Z,101570.22
2023-03-20T14:26:27.097Z,101569.19
2023-03-20T14:28:31.001Z,101565.63
2023-03-20T14:30:41.803Z,101568.97
2023-03-20T14:32:59.658Z,101563.34
2023-03-20T14:35:22.171Z,101571.53
2023-03-20T14:37:38.301Z,101568.97
2023-03-20T14:39:48.764Z,101574.41
2023-03-20T14:42:25.153Z,101575.94
2023-03-20T14:44:38.821Z,101571.53
2023-03-20T14:46:51.336Z,101573.41
2023-03-20T14:48:54.905Z,101580.94
2023-03-20T14:51:11.545Z,101570.03
2023-03-20T14:53:17.915Z,101572.09
2023-03-20T14:55:34.695Z,101577.75
2023-03-20T14:57:55.079Z,101575.19
2023-03-20T14:59:59.762Z,101574.72
2023-03-20T15:02:02.816Z,101585.16
2023-03-20T15:04:08.666Z,101578.22
2023-03-20T15:06:10.603Z,101579.25
2023-03-20T15:08:20.749Z,101580.50
2023-03-20T15:10:23.500Z,101576.25
2023-03-20T15:12:28.718Z,101587.34
2023-03-20T15:14:36.287Z,101574.09
2023-03-20T15:16:39.606Z,101586.88
2023-03-20T15:18:43.880Z,101575.13
2023-03-20T15:20:45.678Z,101579.75
2023-03-20T15:22:51.718Z,101569.88
2023-03-20T15:24:56.067Z,101582.63
2023-03-20T15:27:00.109Z,101577.41
2023-03-20T15:29:04.806Z,101575.53
2023-03-20T15:31:17.717Z,101571.97
2023-03-20T15:33:26.667Z,101568.19
2023-03-20T15:35:28.951Z,101573.81
2023-03-20T15:37:30.763Z,101570.25
2023-03-20T15:39:43.118Z,101577.41
2023-03-20T15:41:46.913Z,101572.97
2023-03-20T15:43:48.828Z,101573.81
2023-03-20T15:46:02.972Z,101579.66
2023-03-20T15:48:18.932Z,101568.56
2023-03-20T15:50:23.139Z,101580.28
2023-03-20T15:52:32.145Z,101579.44
2023-03-20T15:54:37.748Z,101576.94
2023-03-20T15:56:40.214Z,101579.66
2023-03-20T15:58:44.526Z,101571.66
2023-03-20T16:00:48.941Z,101577.97
2023-03-20T16:02:51.050Z,101574.38
2023-03-20T16:04:55.834Z,101576.25
2023-03-20T16:07:00.912Z,101585.44
2023-03-20T16:09:07.371Z,101576.47
2023-03-20T16:11:17.534Z,101586.50
2023-03-20T16:13:19.266Z,101583.09
2023-03-20T16:15:24.252Z,101576.81
2023-03-20T16:17:26.840Z,101591.28
2023-03-20T16:19:30.738Z,101579.75
2023-03-20T16:21:36.593Z,101581.63
2023-03-20T16:23:42.343Z,101579.75
2023-03-20T16:25:44.484Z,101579.91
2023-03-20T16:27:49.790Z,101577.41
2023-03-20T16:29:53.331Z,101573.84
2023-03-20T16:31:58.978Z,101571.28
2023-03-20T16:34:02.385Z,101570.44
2023-03-20T16:36:05.335Z,101570.66
2023-03-20T16:38:16.844Z,101569.59
2023-03-20T16:40:22.723Z,101582.56
2023-03-20T16:42:28.548Z,101580.00
2023-03-20T16:44:33.855Z,101576.47
2023-03-20T16:46:35.552Z,101582.94
2023-03-20T16:48:37.654Z,101580.38
2023-03-20T16:50:43.072Z,101580.59
2023-03-20T16:52:48.191Z,101574.47
2023-03-20T16:54:49.844Z,101579.06
2023-03-20T16:56:55.438Z,101580.94
2023-03-20T16:58:57.246Z,101586.59
2023-03-20T17:01:03.834Z,101581.53
2023-03-20T17:03:13.201Z,101589.00
2023-03-20T17:05:14.738Z,101594.66
2023-03-20T17:07:18.670Z,101589.41
2023-03-20T17:09:26.498Z,101593.13
2023-03-20T17:11:31.013Z,101603.38
2023-03-20T17:13:34.180Z,101590.16
2023-03-20T17:15:37.719Z,101595.72
2023-03-20T17:17:40.867Z,101589.44
2023-03-20T17:19:43.154Z,101603.41
2023-03-20T17:21:45.859Z,101596.28
2023-03-20T17:23:47.720Z,101598.34
2023-03-20T17:25:50.763Z,101603.09
2023-03-20T17:27:52.560Z,101605.00
2023-03-20T17:29:55.946Z,101606.03
2023-03-20T17:31:57.802Z,101601.63
2023-03-20T17:33:59.464Z,101606.41
2023-03-20T17:36:01.076Z,101611.00
2023-03-20T17:38:02.942Z,101609.28
2023-03-20T17:40:05.585Z,101609.28
2023-03-20T17:42:17.429Z,101609.28
2023-03-20T17:44:19.048Z,101607.59
2023-03-20T17:46:24.571Z,101614.09
2023-03-20T17:48:26.577Z,101611.38
2023-03-20T17:50:28.964Z,101616.13
2023-03-20T17:52:30.926Z,101619.03
2023-03-20T17:54:33.223Z,101627.19
2023-03-20T17:56:35.336Z,101620.06
2023-03-20T17:58:37.160Z,101626.53
2023-03-20T18:00:39.791Z,101629.25
2023-03-20T18:02:43.178Z,101627.53
2023-03-20T18:04:44.935Z,101624.81
2023-03-20T18:06:48.601Z,101627.75
2023-03-20T18:08:51.173Z,101633.19
2023-03-20T18:10:53.551Z,101626.03
2023-03-20T18:12:55.342Z,101624.34
2023-03-20T18:14:58.410Z,101627.06
2023-03-20T18:17:00.001Z,101630.84
2023-03-20T18:19:02.876Z,101626.41
2023-03-20T18:21:05.260Z,101629.31
2023-03-20T18:23:07.799Z,101627.63
2023-03-20T18:25:10.245Z,101628.66
2023-03-20T18:27:12.326Z,101624.25
2023-03-20T18:29:14.092Z,101627.97
2023-03-20T18:31:16.400Z,101630.69
2023-03-20T18:33:18.475Z,101620.88
2023-03-20T18:35:22.018Z,101626.31
2023-03-20T18:37:23.933Z,101626.47
2023-03-20T18:39:25.786Z,101632.75
2023-03-20T18:41:27.572Z,101633.78
2023-03-20T18:43:29.153Z,101630.22
2023-03-20T18:45:31.799Z,101636.69
2023-03-20T18:47:35.511Z,101633.13
2023-03-20T18:49:37.321Z,101641.28
2023-03-20T18:51:40.325Z,101632.44
2023-03-20T18:53:42.699Z,101637.88
2023-03-20T18:55:44.578Z,101641.66
2023-03-20T18:57:47.618Z,101640.81
2023-03-20T18:59:49.446Z,101640.13
2023-03-20T19:01:51.248Z,101639.47
2023-03-20T19:03:52.882Z,101645.09
2023-03-20T19:05:57.245Z,101633.19
2023-03-20T19:08:00.473Z,101641.50
2023-03-20T19:10:02.286Z,101640.00
2023-03-20T19:12:04.310Z,101644.78
2023-03-20T19:14:06.124Z,101643.25
2023-03-20T19:16:19.800Z,101644.31
2023-03-20T19:18:23.275Z,101644.66
2023-03-20T19:20:34.295Z,101643.84
2023-03-20T19:22:36.336Z,101646.88
2023-03-20T19:24:39.359Z,101652.50
2023-03-20T19:26:40.957Z,101641.16
2023-03-20T19:28:44.143Z,101646.59
2023-03-20T19:30:45.994Z,101649.47
2023-03-20T19:32:47.858Z,101645.06
2023-03-20T19:35:41.229Z,101650.69
2023-03-20T19:37:12.594Z,101650.84
2023-03-20T19:39:15.225Z,101648.34
2023-03-20T19:41:20.755Z,101654.78
2023-03-20T19:43:24.103Z,101656.81
2023-03-20T19:45:27.930Z,101650.75
2023-03-20T19:47:29.619Z,101655.31
2023-03-20T19:49:32.436Z,101654.66
2023-03-20T19:51:35.675Z,101654.84
2023-03-20T19:53:37.400Z,101652.47
2023-03-20T19:55:40.027Z,101656.22
2023-03-20T19:57:43.231Z,101658.28
2023-03-20T19:59:45.067Z,101651.31
2023-03-20T20:01:48.878Z,101648.78
2023-03-20T20:03:51.617Z,101646.25
2023-03-20T20:05:54.005Z,101646.44
2023-03-20T20:08:22.288Z,101645.75
2023-03-20T20:10:18.585Z,101648.47
2023-03-20T20:12:20.346Z,101643.22
2023-03-20T20:14:23.904Z,101642.53
2023-03-20T20:16:25.621Z,101644.41
2023-03-20T20:18:28.994Z,101647.13
2023-03-20T20:20:34.658Z,101646.28
2023-03-20T20:22:37.573Z,101652.91
2023-03-20T20:24:39.479Z,101651.06
2023-03-20T20:26:53.442Z,101655.63
2023-03-20T20:28:57.157Z,101649.34
2023-03-20T20:31:00.226Z,101658.53
2023-03-20T20:33:05.078Z,101642.06
2023-03-20T20:35:40.590Z,101646.84
2023-03-20T20:39:52.645Z,101641.41
2023-03-20T20:41:54.540Z,101641.56
2023-03-20T20:44:14.984Z,101647.84
2023-03-20T20:46:19.182Z,101651.41
2023-03-20T20:48:21.294Z,101641.72
2023-03-20T20:50:29.628Z,101653.44
2023-03-20T20:52:35.907Z,101656.34
2023-03-20T20:54:37.807Z,101651.94
2023-03-20T20:56:39.663Z,101644.63
2023-03-20T20:58:42.862Z,101654.66
2023-03-20T21:00:50.095Z,101645.66
2023-03-20T21:02:55.512Z,101642.94
2023-03-20T21:04:58.252Z,101649.22
2023-03-20T21:07:10.247Z,101647.53
2023-03-20T21:09:12.755Z,101649.38
2023-03-20T21:11:14.805Z,101651.28
2023-03-20T21:13:16.671Z,101651.44
2023-03-20T21:15:18.758Z,101655.84
2023-03-20T21:17:20.401Z,101660.44
2023-03-20T21:19:24.613Z,101662.28
2023-03-20T21:21:26.362Z,101657.88
2023-03-20T21:23:28.229Z,101654.31
2023-03-20T21:25:40.001Z,101655.38
2023-03-20T21:27:42.529Z,101656.22
2023-03-20T21:29:46.476Z,101659.09
2023-03-20T21:31:48.532Z,101662.81
2023-03-20T21:33:52.670Z,101664.69
2023-03-20T21:35:56.180Z,101659.44
2023-03-20T21:40:21.282Z,101663.19
2023-03-20T21:42:23.288Z,101665.88
2023-03-20T21:45:08.121Z,101667.94
2023-03-20T22:01:45.030Z,101664.53
2023-03-20T22:03:47.610Z,101665.56
2023-03-20T22:06:36.990Z,101668.28
2023-03-20T22:10:08.504Z,101666.75
2023-03-20T22:11:26.157Z,101665.75
2023-03-20T22:15:54.292Z,101672.19
2023-03-20T22:20:42.395Z,101672.56
2023-03-20T22:30:12.385Z,101671.19
2023-03-20T22:37:28.455Z,101669.69
2023-03-20T22:39:39.065Z,101668.00
2023-03-20T22:42:12.410Z,101674.28
2023-03-20T22:46:32.434Z,101671.72
2023-03-20T22:48:31.045Z,101671.91
2023-03-20T22:50:32.736Z,101672.06
2023-03-20T22:52:48.213Z,101668.50
2023-03-20T22:54:50.723Z,101672.22
2023-03-20T22:56:54.137Z,101666.00
2023-03-20T22:58:57.389Z,101672.22
2023-03-20T23:01:00.848Z,101668.88
2023-03-20T23:03:33.513Z,101672.22
2023-03-20T23:05:25.034Z,101669.72
2023-03-20T23:07:26.866Z,101666.00
2023-03-20T23:09:29.588Z,101666.16
2023-03-20T23:11:31.133Z,101662.44
2023-03-20T23:13:34.913Z,101667.00
2023-03-20T23:15:36.730Z,101671.56
2023-03-20T23:17:38.520Z,101666.16
2023-03-20T23:19:49.151Z,101676.00
2023-03-20T23:21:53.785Z,101677.84
2023-03-20T23:23:55.368Z,101672.59
2023-03-20T23:26:05.534Z,101669.72
2023-03-20T23:28:09.062Z,101668.00
2023-03-20T23:30:14.273Z,101668.88
2023-03-20T23:32:15.923Z,101670.72
2023-03-20T23:34:18.236Z,101667.16
2023-03-20T23:36:34.978Z,101666.31
2023-03-20T23:38:37.632Z,101668.19
2023-03-20T23:40:39.660Z,101669.03
2023-03-20T23:42:41.384Z,101677.16
2023-03-20T23:44:50.031Z,101669.22
2023-03-20T23:46:59.720Z,101658.38
2023-03-20T23:49:03.320Z,101667.34
2023-03-20T23:51:05.869Z,101666.50
2023-03-20T23:53:19.606Z,101665.66
2023-03-20T23:55:22.203Z,101661.06
2023-03-20T23:57:24.008Z,101660.22
2023-03-20T23:59:26.602Z,101664.81
